Terminal Aerodrome Forecast
Issued by NWS Mt. Holly, NJ

Home | Current Version | Previous Version | Text Only | Print | Product List | Glossary On
Versions: 1 2 3 4 5 6 7 8 9 10 11 12 13 14 15 16 17 18 19 20 21 22 23 24
000
FTUS41 KPHI 061143
TAFPHL
TAF
KPHL 061143Z 0612/0718 04006KT P6SM OVC200
     FM061500 07009KT P6SM OVC120
     FM061900 09013KT P6SM -RA BKN030 OVC060
     FM062100 08010KT 5SM -RA OVC015
     FM062300 06009KT 3SM -RA BR OVC009
     FM070600 03014KT 3SM -DZ BR OVC004
     FM071200 36006KT 5SM BR OVC007
     FM071500 VRB03KT P6SM OVC010=

USA.gov is the U.S. government's official web portal to all federal, state and local government web resources and services.